Time;durP1;ratioP1;P1;durP2;ratioP2;P2;SDS_P1;SDS_P2;PMS_P1;PMS_P2;Temp;Humidity;BMP_temperature;BMP_pressure;BME280_temperature;BME280_humidity;BME280_pressure;Samples;Min_cycle;Max_cycle;Signal;HPM_P1;HPM_P2
2023/12/01 00:00:17;;;;;;;8.17;4.80;;;1.90;99.90;;;;;;5047419;28;20254;-71
2023/12/01 00:02:44;;;;;;;8.53;4.43;;;2.00;99.90;;;;;;5029950;28;20604;-71
2023/12/01 00:05:11;;;;;;;6.33;4.47;;;1.90;99.90;;;;;;5022559;28;20211;-71
2023/12/01 00:07:40;;;;;;;6.07;4.33;;;1.80;99.90;;;;;;5050399;28;20206;-71
2023/12/01 00:10:11;;;;;;;6.17;4.27;;;1.80;99.90;;;;;;5021397;28;20734;-72
2023/12/01 00:12:38;;;;;;;8.70;4.67;;;1.80;99.90;;;;;;5049678;28;20190;-70
2023/12/01 00:15:07;;;;;;;10.43;5.47;;;1.80;99.90;;;;;;5028374;28;20206;-69
2023/12/01 00:17:34;;;;;;;6.87;4.60;;;1.80;99.90;;;;;;5050524;28;20198;-69
2023/12/01 00:20:03;;;;;;;7.87;5.20;;;1.80;99.90;;;;;;5050117;28;20251;-70
2023/12/01 00:22:30;;;;;;;8.93;4.93;;;1.80;99.90;;;;;;5026303;28;20597;-71
2023/12/01 00:24:58;;;;;;;8.03;4.80;;;1.80;99.90;;;;;;5032110;28;20590;-71
2023/12/01 00:27:25;;;;;;;10.17;5.67;;;1.80;99.90;;;;;;5028109;28;20292;-71
2023/12/01 00:29:53;;;;;;;8.40;4.87;;;1.80;99.90;;;;;;5051452;28;20289;-71
2023/12/01 00:32:20;;;;;;;6.33;4.13;;;1.70;99.90;;;;;;5052352;28;20573;-71
2023/12/01 00:34:47;;;;;;;9.33;4.93;;;1.70;99.90;;;;;;5045413;28;20635;-71
2023/12/01 00:37:16;;;;;;;6.93;4.13;;;1.70;99.90;;;;;;5032847;28;20296;-68
2023/12/01 00:39:43;;;;;;;7.13;4.40;;;1.70;99.90;;;;;;5034090;28;20278;-71
2023/12/01 00:42:13;;;;;;;6.30;4.27;;;1.60;99.90;;;;;;5034317;28;20695;-70
2023/12/01 00:44:40;;;;;;;5.83;3.40;;;1.60;99.90;;;;;;5032898;28;20205;-70
2023/12/01 00:47:08;;;;;;;5.57;3.93;;;1.60;99.90;;;;;;5047300;28;20212;-70
2023/12/01 00:49:35;;;;;;;9.10;4.83;;;1.60;99.90;;;;;;5045317;28;20209;-70
2023/12/01 00:52:04;;;;;;;6.73;4.60;;;1.60;99.90;;;;;;5032774;28;20197;-70
2023/12/01 00:54:31;;;;;;;6.03;3.97;;;1.60;99.90;;;;;;5033057;28;20550;-70
2023/12/01 00:56:58;;;;;;;4.53;3.40;;;1.60;99.90;;;;;;5033042;28;20197;-70
2023/12/01 00:59:27;;;;;;;9.13;5.00;;;1.60;99.90;;;;;;5050263;28;20255;-70
2023/12/01 01:01:54;;;;;;;6.53;4.27;;;1.60;99.90;;;;;;5045941;28;20718;-71
2023/12/01 01:04:21;;;;;;;5.03;3.50;;;1.60;99.90;;;;;;5040469;28;20639;-71
2023/12/01 01:06:48;;;;;;;6.87;3.97;;;1.60;99.90;;;;;;5029901;28;20647;-71
2023/12/01 01:09:16;;;;;;;4.93;4.03;;;1.60;99.90;;;;;;5039935;28;20647;-71
2023/12/01 01:11:43;;;;;;;5.17;3.57;;;1.60;99.90;;;;;;5050423;28;20194;-71
2023/12/01 01:14:10;;;;;;;4.47;3.30;;;1.60;99.90;;;;;;5037113;28;20627;-71
2023/12/01 01:16:39;;;;;;;4.10;3.70;;;1.60;99.90;;;;;;5049662;28;20225;-71
2023/12/01 01:19:06;;;;;;;5.17;4.10;;;1.60;99.90;;;;;;5025923;28;20205;-71
2023/12/01 01:21:33;;;;;;;5.10;3.67;;;1.60;99.90;;;;;;5050647;28;20431;-71
2023/12/01 01:24:00;;;;;;;4.43;3.13;;;1.50;99.90;;;;;;5033276;28;20734;-71
2023/12/01 01:26:27;;;;;;;4.13;3.57;;;1.50;99.90;;;;;;5031502;28;20221;-71
2023/12/01 01:28:54;;;;;;;4.00;3.40;;;1.50;99.90;;;;;;5050907;28;20243;-71
2023/12/01 01:31:21;;;;;;;5.57;3.33;;;1.60;99.90;;;;;;5033232;28;20216;-71
2023/12/01 01:33:50;;;;;;;6.07;3.90;;;1.60;99.90;;;;;;5031859;28;20198;-71
2023/12/01 01:36:18;;;;;;;4.67;3.77;;;1.60;99.90;;;;;;5031070;28;20221;-71
2023/12/01 01:38:45;;;;;;;5.10;3.90;;;1.50;99.80;;;;;;5049151;28;20239;-70
2023/12/01 01:41:12;;;;;;;4.43;3.73;;;1.50;99.80;;;;;;5050844;28;20240;-69
2023/12/01 01:43:39;;;;;;;8.33;4.80;;;1.60;99.90;;;;;;5050667;28;20202;-69
2023/12/01 01:46:07;;;;;;;8.53;5.10;;;1.50;99.90;;;;;;5050201;28;20318;-70
2023/12/01 01:48:35;;;;;;;9.13;5.47;;;1.50;99.70;;;;;;5028492;28;20581;-70
2023/12/01 01:51:06;;;;;;;12.13;6.13;;;1.50;99.60;;;;;;5049768;28;20216;-70
2023/12/01 01:53:34;;;;;;;10.47;5.30;;;1.50;99.50;;;;;;5050567;28;20530;-70
2023/12/01 01:56:02;;;;;;;10.20;5.43;;;1.50;99.50;;;;;;5046766;28;20233;-71
2023/12/01 01:58:29;;;;;;;7.57;4.37;;;1.40;99.80;;;;;;5050067;28;20673;-70
2023/12/01 02:00:56;;;;;;;7.10;4.60;;;1.40;99.50;;;;;;5030546;28;20268;-70
2023/12/01 02:03:23;;;;;;;6.63;4.47;;;1.40;99.50;;;;;;5049358;28;20204;-69
2023/12/01 02:05:51;;;;;;;6.13;3.97;;;1.40;99.80;;;;;;5049750;28;20232;-69
2023/12/01 02:08:26;;;;;;;7.93;4.60;;;1.30;99.50;;;;;;5049853;28;20197;-68
2023/12/01 02:10:54;;;;;;;5.70;3.83;;;1.30;99.50;;;;;;5032096;28;20561;-68
2023/12/01 02:13:22;;;;;;;5.53;4.20;;;1.30;99.50;;;;;;5050056;28;20186;-68
2023/12/01 02:15:49;;;;;;;4.90;3.73;;;1.40;99.50;;;;;;5030855;28;20204;-69
2023/12/01 02:18:20;;;;;;;7.33;4.60;;;1.50;99.60;;;;;;5049134;28;20202;-69
2023/12/01 02:20:48;;;;;;;5.53;3.87;;;1.30;99.40;;;;;;5034989;28;20197;-68
2023/12/01 02:23:16;;;;;;;5.10;3.53;;;1.30;99.40;;;;;;5053752;28;20206;-69
2023/12/01 02:25:43;;;;;;;4.23;3.13;;;1.30;99.50;;;;;;5035839;28;20205;-68
2023/12/01 02:28:11;;;;;;;5.67;4.13;;;1.30;99.60;;;;;;5053454;28;20251;-67
2023/12/01 02:30:38;;;;;;;12.83;7.43;;;1.30;99.70;;;;;;5053103;28;20197;-68
2023/12/01 02:33:05;;;;;;;13.07;7.10;;;1.40;99.60;;;;;;5053461;28;20208;-68
2023/12/01 02:35:32;;;;;;;10.87;7.23;;;1.40;99.50;;;;;;5052468;28;20189;-68
2023/12/01 02:38:00;;;;;;;9.87;6.50;;;1.40;99.60;;;;;;5034603;28;20213;-69
2023/12/01 02:40:29;;;;;;;9.43;6.97;;;1.40;99.60;;;;;;5053749;28;20248;-68
2023/12/01 02:42:56;;;;;;;9.47;6.10;;;1.40;99.60;;;;;;5035613;28;20219;-68
2023/12/01 02:45:23;;;;;;;8.07;5.83;;;1.40;99.60;;;;;;5052674;28;20546;-68
2023/12/01 02:47:50;;;;;;;8.03;5.10;;;1.40;99.60;;;;;;5052478;28;20665;-68
2023/12/01 02:50:18;;;;;;;7.80;5.30;;;1.40;99.70;;;;;;5044926;28;20201;-68
2023/12/01 02:52:45;;;;;;;6.40;4.60;;;1.40;99.70;;;;;;5052888;28;20225;-68
2023/12/01 02:55:12;;;;;;;7.40;4.70;;;1.40;99.70;;;;;;5045215;28;20684;-68
2023/12/01 02:57:42;;;;;;;6.67;4.27;;;1.40;99.70;;;;;;5042365;28;20198;-68
2023/12/01 03:00:13;;;;;;;7.30;4.40;;;1.40;99.70;;;;;;5052172;28;20229;-69
2023/12/01 03:02:41;;;;;;;4.77;4.07;;;1.40;99.70;;;;;;5052950;28;20190;-69
2023/12/01 03:05:09;;;;;;;8.53;4.70;;;1.50;99.60;;;;;;5051785;28;20220;-68
2023/12/01 03:07:37;;;;;;;6.73;4.50;;;1.50;99.60;;;;;;5030284;28;20278;-70
2023/12/01 03:10:04;;;;;;;5.87;4.27;;;1.50;99.70;;;;;;5035424;28;20625;-69
2023/12/01 03:12:32;;;;;;;6.67;4.23;;;1.50;99.80;;;;;;5053065;28;20194;-70
2023/12/01 03:15:00;;;;;;;5.90;4.40;;;1.50;99.80;;;;;;5052857;28;20200;-69
2023/12/01 03:17:27;;;;;;;4.93;3.73;;;1.50;99.90;;;;;;5053084;28;20198;-69
2023/12/01 03:19:54;;;;;;;4.47;3.50;;;1.60;99.90;;;;;;5052464;28;20190;-70
2023/12/01 03:22:21;;;;;;;7.27;4.30;;;1.60;99.90;;;;;;5051977;28;20193;-70
2023/12/01 03:24:53;;;;;;;7.20;4.40;;;1.60;99.90;;;;;;5052644;28;20193;-69
2023/12/01 03:27:20;;;;;;;5.87;4.40;;;1.60;99.90;;;;;;5046711;28;20229;-69
2023/12/01 03:29:47;;;;;;;9.10;5.63;;;1.70;99.90;;;;;;5033678;28;20220;-68
2023/12/01 03:32:16;;;;;;;8.27;5.30;;;1.70;99.90;;;;;;5034697;28;20580;-71
2023/12/01 03:34:43;;;;;;;6.30;4.47;;;1.70;99.90;;;;;;5033569;28;20721;-71
2023/12/01 03:37:10;;;;;;;6.17;4.57;;;1.70;99.90;;;;;;5052075;28;20205;-69
2023/12/01 03:39:37;;;;;;;6.83;4.93;;;1.70;99.90;;;;;;5034391;28;20236;-69
2023/12/01 03:42:04;;;;;;;8.37;5.07;;;1.70;99.90;;;;;;5053081;28;20197;-69
2023/12/01 03:44:32;;;;;;;9.07;5.30;;;1.70;99.90;;;;;;5053145;28;20193;-69
2023/12/01 03:46:59;;;;;;;6.67;5.00;;;1.70;99.90;;;;;;5052594;28;20236;-69
2023/12/01 03:49:28;;;;;;;7.37;4.77;;;1.70;99.90;;;;;;5045720;28;20248;-68
2023/12/01 03:51:55;;;;;;;7.07;5.10;;;1.70;99.90;;;;;;5034542;28;20202;-69
2023/12/01 03:54:22;;;;;;;8.73;5.27;;;1.70;99.90;;;;;;5049686;28;20198;-69
2023/12/01 03:56:49;;;;;;;5.80;4.33;;;1.70;99.90;;;;;;5019544;28;20202;-68
2023/12/01 03:59:16;;;;;;;8.47;4.97;;;1.70;99.90;;;;;;5023926;28;20667;-69
2023/12/01 04:01:43;;;;;;;7.57;4.97;;;1.70;99.90;;;;;;5034671;28;20209;-70
2023/12/01 04:04:11;;;;;;;7.63;4.77;;;1.70;99.90;;;;;;5042970;28;20202;-70
2023/12/01 04:06:42;;;;;;;8.53;5.63;;;1.60;99.90;;;;;;5034855;28;20229;-69
2023/12/01 04:09:10;;;;;;;9.07;5.63;;;1.60;99.90;;;;;;5040019;28;20193;-69
2023/12/01 04:11:38;;;;;;;8.40;4.90;;;1.70;99.90;;;;;;5031425;28;20233;-69
2023/12/01 04:14:05;;;;;;;6.67;4.70;;;1.60;99.90;;;;;;5052402;28;20197;-69
2023/12/01 04:16:33;;;;;;;8.43;5.20;;;1.70;99.90;;;;;;5051867;28;20197;-70
2023/12/01 04:19:00;;;;;;;7.47;4.97;;;1.70;99.90;;;;;;5051046;28;20198;-70
2023/12/01 04:21:27;;;;;;;6.23;4.60;;;1.70;99.90;;;;;;5051018;28;20279;-70
2023/12/01 04:23:56;;;;;;;5.50;4.50;;;1.60;99.90;;;;;;5051875;28;20201;-69
2023/12/01 04:26:24;;;;;;;8.97;5.03;;;1.60;99.90;;;;;;5051352;28;20213;-70
2023/12/01 04:28:51;;;;;;;8.93;4.67;;;1.60;99.90;;;;;;5051783;28;20209;-69
2023/12/01 04:31:21;;;;;;;8.70;5.37;;;1.60;99.90;;;;;;5032235;28;20231;-69
2023/12/01 04:33:48;;;;;;;6.77;4.83;;;1.60;99.90;;;;;;5041206;28;20616;-69
2023/12/01 04:36:15;;;;;;;11.20;6.30;;;1.60;99.90;;;;;;5047964;28;20212;-69
2023/12/01 04:38:43;;;;;;;10.27;5.60;;;1.60;99.90;;;;;;5051793;28;20201;-69
2023/12/01 04:41:12;;;;;;;8.93;5.47;;;1.60;99.90;;;;;;5025445;28;20853;-69
2023/12/01 04:43:40;;;;;;;11.63;6.13;;;1.60;99.90;;;;;;5033943;28;20201;-69
2023/12/01 04:46:08;;;;;;;9.80;5.80;;;1.60;99.90;;;;;;5046623;28;20217;-68
2023/12/01 04:48:35;;;;;;;8.77;5.13;;;1.60;99.90;;;;;;5050369;28;20562;-70
2023/12/01 04:51:03;;;;;;;8.87;5.27;;;1.60;99.90;;;;;;5032875;28;20623;-71
2023/12/01 04:53:30;;;;;;;9.97;5.50;;;1.50;99.90;;;;;;5044268;28;20194;-71
2023/12/01 04:55:57;;;;;;;10.07;6.13;;;1.50;99.90;;;;;;5044020;28;20541;-67
2023/12/01 04:58:25;;;;;;;8.43;5.17;;;1.50;99.90;;;;;;5058483;28;20413;-68
2023/12/01 05:00:52;;;;;;;10.67;5.50;;;1.50;99.90;;;;;;5050896;28;20774;-68
2023/12/01 05:03:20;;;;;;;10.87;5.90;;;1.50;99.90;;;;;;5029681;28;20210;-67
2023/12/01 05:05:47;;;;;;;10.13;5.40;;;1.50;99.90;;;;;;5050453;28;20209;-68
2023/12/01 05:08:14;;;;;;;10.43;6.17;;;1.40;99.90;;;;;;5050687;28;20212;-69
2023/12/01 05:10:44;;;;;;;10.10;5.23;;;1.40;99.90;;;;;;5035305;28;20198;-68
2023/12/01 05:13:14;;;;;;;8.23;5.00;;;1.50;99.90;;;;;;5045017;28;20275;-68
2023/12/01 05:15:42;;;;;;;11.07;6.20;;;1.50;99.90;;;;;;5050715;28;20217;-67
2023/12/01 05:18:11;;;;;;;11.80;6.30;;;1.50;99.90;;;;;;5050245;28;20204;-67
2023/12/01 05:20:38;;;;;;;11.23;5.97;;;1.40;99.90;;;;;;5050778;28;20245;-70
2023/12/01 05:23:09;;;;;;;10.27;5.57;;;1.40;99.90;;;;;;5048449;28;20255;-71
2023/12/01 05:25:38;;;;;;;9.47;4.93;;;1.30;99.90;;;;;;5047766;28;20190;-70
2023/12/01 05:28:07;;;;;;;11.37;5.80;;;1.30;99.90;;;;;;5046450;28;20194;-67
2023/12/01 05:30:36;;;;;;;11.73;6.60;;;1.30;99.90;;;;;;5050405;28;20210;-68
2023/12/01 05:33:05;;;;;;;10.33;5.90;;;1.40;99.90;;;;;;5032094;28;20521;-67
2023/12/01 05:35:32;;;;;;;7.47;4.50;;;1.40;99.90;;;;;;5048642;28;20193;-68
2023/12/01 05:38:00;;;;;;;8.97;5.30;;;1.40;99.90;;;;;;5046948;28;20213;-69
2023/12/01 05:40:30;;;;;;;9.40;5.13;;;1.40;99.90;;;;;;5033288;28;20209;-69
2023/12/01 05:42:58;;;;;;;12.07;6.10;;;1.40;99.90;;;;;;5050315;28;20194;-69
2023/12/01 05:45:27;;;;;;;11.87;5.90;;;1.40;99.90;;;;;;5031982;28;20355;-69
2023/12/01 05:47:55;;;;;;;13.23;6.53;;;1.50;99.90;;;;;;5048944;28;20276;-70
2023/12/01 05:50:25;;;;;;;9.23;5.70;;;1.40;99.90;;;;;;5049967;28;20197;-70
2023/12/01 05:52:56;;;;;;;13.27;6.87;;;1.40;99.90;;;;;;5049394;28;20259;-71
2023/12/01 05:55:24;;;;;;;14.53;7.33;;;1.50;99.90;;;;;;5049411;28;20211;-69
2023/12/01 05:57:53;;;;;;;14.67;7.57;;;1.50;99.90;;;;;;5043707;28;20201;-68
2023/12/01 06:00:22;;;;;;;15.00;7.87;;;1.50;99.90;;;;;;5044734;28;20234;-68
2023/12/01 06:02:50;;;;;;;17.60;8.80;;;1.40;99.90;;;;;;5038081;28;20209;-68
2023/12/01 06:05:23;;;;;;;15.10;7.77;;;1.40;99.90;;;;;;5048990;28;20221;-68
2023/12/01 06:07:52;;;;;;;18.50;9.00;;;1.40;99.90;;;;;;5029349;28;20217;-69
2023/12/01 06:10:19;;;;;;;17.87;8.43;;;1.40;99.90;;;;;;5050361;28;20233;-69
2023/12/01 06:12:50;;;;;;;17.77;8.93;;;1.30;99.90;;;;;;5032373;28;20275;-69
2023/12/01 06:15:18;;;;;;;21.90;9.60;;;1.30;99.90;;;;;;5049216;28;20258;-69
2023/12/01 06:17:47;;;;;;;16.40;8.63;;;1.30;99.90;;;;;;5046286;28;20198;-69
2023/12/01 06:20:18;;;;;;;13.73;7.77;;;1.30;99.90;;;;;;5049447;28;20272;-69
2023/12/01 06:22:52;;;;;;;20.13;9.17;;;1.40;99.90;;;;;;5025022;28;20220;-70
2023/12/01 06:25:20;;;;;;;19.73;10.10;;;1.20;99.90;;;;;;5048967;28;20243;-69
2023/12/01 06:27:48;;;;;;;18.17;9.07;;;1.20;99.90;;;;;;5026077;28;20627;-69
2023/12/01 06:30:16;;;;;;;16.13;8.50;;;1.20;99.90;;;;;;5049778;28;20205;-69
2023/12/01 06:32:44;;;;;;;20.10;9.60;;;0.70;99.90;;;;;;5030985;28;20205;-69
2023/12/01 06:35:12;;;;;;;15.13;7.77;;;1.20;99.90;;;;;;5044856;28;20201;-68
2023/12/01 06:37:40;;;;;;;17.40;8.83;;;1.20;99.90;;;;;;5048830;28;20198;-67
2023/12/01 06:40:12;;;;;;;16.07;8.30;;;1.20;99.90;;;;;;5049946;28;20607;-68
2023/12/01 06:42:41;;;;;;;19.57;9.77;;;1.30;99.90;;;;;;5049570;28;20293;-68
2023/12/01 06:45:10;;;;;;;17.60;9.43;;;1.20;99.90;;;;;;5031062;28;20275;-68
2023/12/01 06:47:43;;;;;;;17.13;9.23;;;1.30;99.90;;;;;;5049895;28;20238;-68
2023/12/01 06:50:11;;;;;;;15.83;8.17;;;1.40;99.90;;;;;;5052564;28;20193;-68
2023/12/01 06:52:40;;;;;;;16.37;8.37;;;1.40;99.90;;;;;;5046362;28;20204;-70
2023/12/01 06:55:09;;;;;;;17.00;8.40;;;1.40;99.90;;;;;;5045556;28;20607;-69
2023/12/01 06:57:38;;;;;;;18.17;9.13;;;1.40;99.90;;;;;;5023392;28;20240;-69
2023/12/01 07:00:08;;;;;;;19.60;9.60;;;1.50;99.90;;;;;;5032629;28;21514;-69
2023/12/01 07:02:37;;;;;;;19.43;10.20;;;1.50;99.90;;;;;;5017030;28;20800;-68
2023/12/01 07:05:05;;;;;;;17.00;8.60;;;1.40;99.90;;;;;;5046678;28;20217;-69
2023/12/01 07:07:32;;;;;;;15.70;8.43;;;1.50;99.90;;;;;;5048015;28;20205;-69
2023/12/01 07:10:00;;;;;;;19.27;9.00;;;1.50;99.90;;;;;;5032984;28;20198;-69
2023/12/01 07:12:29;;;;;;;18.13;8.87;;;1.50;99.90;;;;;;5042659;28;20214;-69
2023/12/01 07:14:56;;;;;;;16.53;8.23;;;1.50;99.90;;;;;;5050311;28;20588;-68
2023/12/01 07:17:23;;;;;;;14.43;7.67;;;1.50;99.90;;;;;;5049762;28;20561;-69
2023/12/01 07:19:50;;;;;;;15.13;8.07;;;1.50;99.90;;;;;;5042429;28;20887;-69
2023/12/01 07:22:17;;;;;;;13.90;7.37;;;1.60;99.90;;;;;;5046142;28;20679;-69
2023/12/01 07:24:44;;;;;;;12.23;6.90;;;1.60;99.90;;;;;;5031130;28;20259;-68
2023/12/01 07:27:11;;;;;;;11.20;6.37;;;1.70;99.90;;;;;;5051073;28;20214;-69
2023/12/01 07:29:40;;;;;;;15.57;8.07;;;1.80;99.90;;;;;;5032611;28;20311;-69
2023/12/01 07:32:07;;;;;;;15.20;7.43;;;1.80;99.90;;;;;;5049159;28;20220;-69
2023/12/01 07:34:35;;;;;;;14.17;7.70;;;1.90;99.90;;;;;;5049062;28;20684;-69
2023/12/01 07:37:10;;;;;;;19.07;8.83;;;1.90;99.90;;;;;;5030824;28;20592;-68
2023/12/01 07:39:37;;;;;;;15.80;8.30;;;2.00;99.90;;;;;;5030181;28;20304;-69
2023/12/01 07:42:05;;;;;;;19.23;7.73;;;2.10;99.90;;;;;;5050842;28;20222;-69
2023/12/01 07:44:32;;;;;;;10.03;6.40;;;2.10;99.90;;;;;;5042013;28;20271;-69
2023/12/01 07:47:04;;;;;;;14.83;7.60;;;2.20;99.90;;;;;;5050404;28;20217;-69
2023/12/01 07:49:32;;;;;;;13.43;6.60;;;2.30;99.90;;;;;;5030467;28;20223;-69
2023/12/01 07:51:59;;;;;;;16.43;8.67;;;2.30;99.90;;;;;;5049812;28;20213;-68
2023/12/01 07:54:26;;;;;;;19.17;8.20;;;2.40;99.90;;;;;;5048428;28;20324;-64
2023/12/01 07:56:53;;;;;;;15.10;7.77;;;2.60;99.90;;;;;;5044628;28;20229;-65
2023/12/01 07:59:21;;;;;;;17.27;7.93;;;2.70;99.90;;;;;;5050051;28;20248;-66
2023/12/01 08:01:48;;;;;;;18.57;7.77;;;2.70;99.90;;;;;;5046146;28;20197;-64
2023/12/01 08:04:16;;;;;;;15.90;7.93;;;2.60;99.90;;;;;;5043179;28;20190;-65
2023/12/01 08:06:43;;;;;;;18.03;8.10;;;2.50;99.90;;;;;;5026851;28;20300;-65
2023/12/01 08:09:16;;;;;;;15.30;8.07;;;2.40;99.90;;;;;;5043922;28;20201;-65
2023/12/01 08:11:44;;;;;;;13.97;7.63;;;2.30;99.90;;;;;;5049139;28;20248;-65
2023/12/01 08:14:11;;;;;;;14.80;8.10;;;2.30;99.90;;;;;;5049433;28;20267;-65
2023/12/01 08:16:38;;;;;;;18.03;8.70;;;2.30;99.90;;;;;;5029725;28;20201;-65
2023/12/01 08:19:09;;;;;;;19.27;8.63;;;2.30;99.90;;;;;;5046964;28;20425;-66
2023/12/01 08:21:38;;;;;;;15.70;7.40;;;2.30;99.90;;;;;;5030812;28;20198;-64
2023/12/01 08:24:05;;;;;;;15.73;7.13;;;2.40;99.90;;;;;;5048520;28;20705;-65
2023/12/01 08:26:32;;;;;;;13.93;7.20;;;2.40;99.90;;;;;;5049012;28;20244;-64
2023/12/01 08:28:59;;;;;;;11.60;6.30;;;2.60;99.90;;;;;;5049624;28;20284;-65
2023/12/01 08:31:27;;;;;;;12.87;6.87;;;2.80;99.90;;;;;;5048184;28;20202;-65
2023/12/01 08:33:54;;;;;;;16.90;6.90;;;2.80;99.90;;;;;;5048155;28;20204;-65
2023/12/01 08:36:21;;;;;;;19.97;8.70;;;2.70;99.90;;;;;;5028923;28;20604;-65
2023/12/01 08:38:49;;;;;;;22.43;9.83;;;2.70;99.90;;;;;;5044615;28;20946;-65
2023/12/01 08:41:17;;;;;;;18.63;8.93;;;2.60;99.90;;;;;;5023356;28;20194;-66
2023/12/01 08:43:44;;;;;;;15.90;8.37;;;2.60;99.90;;;;;;5043375;28;20252;-64
2023/12/01 08:46:11;;;;;;;17.10;8.00;;;2.60;99.90;;;;;;5047477;28;20201;-65
2023/12/01 08:48:38;;;;;;;19.83;8.47;;;2.50;99.90;;;;;;5026273;28;20218;-65
2023/12/01 08:51:06;;;;;;;19.20;8.47;;;2.50;99.90;;;;;;5049574;28;20197;-65
2023/12/01 08:53:33;;;;;;;22.10;8.30;;;2.60;99.90;;;;;;5046232;28;20255;-65
2023/12/01 08:56:01;;;;;;;15.83;7.47;;;2.60;99.90;;;;;;5045211;28;20295;-66
2023/12/01 08:58:28;;;;;;;14.90;7.60;;;2.80;99.90;;;;;;5048325;28;20791;-65
2023/12/01 09:00:55;;;;;;;16.60;8.27;;;2.90;99.90;;;;;;5045703;28;20221;-65
2023/12/01 09:03:22;;;;;;;13.57;7.40;;;3.00;99.90;;;;;;5017341;28;20201;-65
2023/12/01 09:05:50;;;;;;;18.40;8.80;;;2.90;99.90;;;;;;5035250;28;20208;-65
2023/12/01 09:08:17;;;;;;;17.40;8.53;;;2.90;99.90;;;;;;5039078;28;20267;-65
2023/12/01 09:10:44;;;;;;;18.07;9.10;;;2.90;99.90;;;;;;5048362;28;20285;-64
2023/12/01 09:13:12;;;;;;;20.37;8.73;;;2.90;99.90;;;;;;5044763;28;20201;-64
2023/12/01 09:15:39;;;;;;;15.57;7.77;;;2.90;99.90;;;;;;5040589;28;20585;-65
2023/12/01 09:18:07;;;;;;;19.90;9.67;;;2.90;99.90;;;;;;5041998;28;20221;-65
2023/12/01 09:20:34;;;;;;;18.50;8.97;;;2.90;99.90;;;;;;5039770;28;20195;-63
2023/12/01 09:23:01;;;;;;;16.43;7.67;;;3.10;99.90;;;;;;5044448;28;20204;-65
2023/12/01 09:25:28;;;;;;;15.47;7.93;;;3.30;99.90;;;;;;5045719;28;20229;-65
2023/12/01 09:27:55;;;;;;;15.47;7.53;;;3.50;99.90;;;;;;5046496;28;20258;-66
2023/12/01 09:30:23;;;;;;;17.57;8.47;;;3.70;99.90;;;;;;5046753;28;20221;-65
2023/12/01 09:32:50;;;;;;;19.37;9.13;;;3.80;99.90;;;;;;5044081;28;20243;-65
2023/12/01 09:35:19;;;;;;;13.30;7.67;;;4.00;99.90;;;;;;5038834;28;20192;-65
2023/12/01 09:37:46;;;;;;;13.33;7.17;;;4.10;99.90;;;;;;5040322;28;20190;-65
2023/12/01 09:40:13;;;;;;;12.87;7.30;;;4.30;99.90;;;;;;5046381;28;20228;-65
2023/12/01 09:42:42;;;;;;;14.17;7.03;;;4.60;99.90;;;;;;5047333;28;20201;-65
2023/12/01 09:45:10;;;;;;;14.83;7.47;;;4.80;99.90;;;;;;5028002;28;20206;-65
2023/12/01 09:47:43;;;;;;;13.77;6.83;;;5.20;99.90;;;;;;5047575;28;20213;-64
2023/12/01 09:50:14;;;;;;;11.40;6.60;;;5.50;99.90;;;;;;5041805;28;20193;-65
2023/12/01 09:52:42;;;;;;;13.07;7.23;;;5.80;99.90;;;;;;5041398;28;20218;-64
2023/12/01 09:55:09;;;;;;;24.00;8.57;;;6.00;99.90;;;;;;5046703;28;20205;-64
2023/12/01 09:57:37;;;;;;;11.40;6.63;;;6.40;99.90;;;;;;5047881;28;20697;-64
2023/12/01 10:00:11;;;;;;;11.13;6.53;;;6.50;99.90;;;;;;5024135;28;20658;-64
2023/12/01 10:02:40;;;;;;;12.27;6.20;;;6.60;99.70;;;;;;5040946;28;20519;-64
2023/12/01 10:05:10;;;;;;;10.50;6.37;;;6.60;99.60;;;;;;5036033;28;20220;-65
2023/12/01 10:07:37;;;;;;;8.43;5.40;;;6.60;99.50;;;;;;5034976;28;20207;-65
2023/12/01 10:10:19;;;;;;;12.20;6.00;;;6.60;99.70;;;;;;5045069;28;20199;-65
2023/12/01 10:13:04;;;;;;;11.87;6.00;;;6.90;99.20;;;;;;5044418;28;20554;-64
2023/12/01 10:15:32;;;;;;;9.47;6.07;;;7.50;99.10;;;;;;5038146;28;20216;-65
2023/12/01 10:18:11;;;;;;;7.93;5.63;;;8.00;98.30;;;;;;5046793;28;20255;-64
2023/12/01 10:20:39;;;;;;;10.67;6.30;;;8.30;97.60;;;;;;5045185;28;20200;-65
2023/12/01 10:23:18;;;;;;;9.87;6.17;;;8.40;96.50;;;;;;5028672;28;20229;-64
2023/12/01 10:25:48;;;;;;;9.10;5.60;;;8.30;96.40;;;;;;5028628;28;20614;-64
2023/12/01 10:28:16;;;;;;;10.97;5.73;;;8.10;96.40;;;;;;5047694;28;20210;-64
2023/12/01 10:30:59;;;;;;;10.83;6.63;;;8.00;96.60;;;;;;5041938;28;20284;-64
2023/12/01 10:33:29;;;;;;;10.13;5.47;;;8.10;96.60;;;;;;5039864;28;20257;-64
2023/12/01 10:36:01;;;;;;;11.50;6.07;;;8.30;96.50;;;;;;5044686;28;20208;-65
2023/12/01 10:38:29;;;;;;;9.97;5.63;;;8.30;95.80;;;;;;5047285;28;20267;-65
2023/12/01 10:40:57;;;;;;;8.50;6.00;;;8.40;95.90;;;;;;5046947;28;20596;-65
2023/12/01 10:43:26;;;;;;;12.40;6.77;;;8.30;95.80;;;;;;5048431;28;20686;-66
2023/12/01 10:45:53;;;;;;;10.23;5.73;;;8.20;95.10;;;;;;5056747;28;20205;-65
2023/12/01 10:48:22;;;;;;;10.60;6.17;;;8.00;95.40;;;;;;5045969;28;20217;-65
2023/12/01 10:50:52;;;;;;;10.63;6.37;;;7.70;95.50;;;;;;5052286;28;20190;-65
2023/12/01 10:53:19;;;;;;;8.87;5.73;;;7.50;95.70;;;;;;5043755;28;20230;-65
2023/12/01 10:55:48;;;;;;;10.77;5.97;;;7.40;95.80;;;;;;5039788;28;20209;-64
2023/12/01 10:58:22;;;;;;;7.80;5.03;;;7.20;96.00;;;;;;5043405;28;20267;-64
2023/12/01 11:00:50;;;;;;;6.90;4.53;;;7.10;96.20;;;;;;5050188;28;20797;-65
2023/12/01 11:03:20;;;;;;;6.97;4.40;;;7.00;96.30;;;;;;5049936;28;20198;-65
2023/12/01 11:05:51;;;;;;;6.30;4.17;;;6.80;96.40;;;;;;5048461;28;20197;-65
2023/12/01 11:08:33;;;;;;;5.03;3.83;;;6.60;96.70;;;;;;5042686;28;20239;-65
2023/12/01 11:11:12;;;;;;;6.23;3.83;;;6.50;97.00;;;;;;5032736;28;20277;-65
2023/12/01 11:13:57;;;;;;;6.53;4.00;;;6.40;97.20;;;;;;5031938;28;20270;-65
2023/12/01 11:16:25;;;;;;;5.63;3.87;;;6.30;97.30;;;;;;5045395;28;20201;-65
2023/12/01 11:18:52;;;;;;;5.30;3.87;;;6.10;97.40;;;;;;5043734;28;20227;-65
2023/12/01 11:21:20;;;;;;;5.93;3.73;;;6.10;97.50;;;;;;5050702;28;20192;-65
2023/12/01 11:23:49;;;;;;;7.27;3.63;;;6.00;97.70;;;;;;5032380;28;20671;-65
2023/12/01 11:26:17;;;;;;;6.23;3.57;;;5.90;97.70;;;;;;5049913;28;20619;-65
2023/12/01 11:28:46;;;;;;;7.27;3.63;;;5.80;97.90;;;;;;5031974;28;20741;-65
2023/12/01 11:31:19;;;;;;;4.83;3.30;;;5.80;98.00;;;;;;5030736;28;20258;-65
2023/12/01 11:33:48;;;;;;;3.93;2.60;;;5.70;98.10;;;;;;5047304;28;20643;-65
2023/12/01 11:36:31;;;;;;;4.97;3.50;;;5.70;98.20;;;;;;5049255;28;20675;-65
2023/12/01 11:39:20;;;;;;;4.17;3.20;;;5.70;98.20;;;;;;5046929;28;20648;-64
2023/12/01 11:41:54;;;;;;;4.47;2.70;;;5.70;98.20;;;;;;5047715;28;20680;-64
2023/12/01 11:44:24;;;;;;;5.47;2.97;;;5.70;98.30;;;;;;5050695;28;20743;-65
2023/12/01 11:46:58;;;;;;;4.03;3.00;;;5.70;98.30;;;;;;5043625;28;20671;-65
2023/12/01 11:49:27;;;;;;;4.50;2.93;;;5.70;98.40;;;;;;5050534;28;20210;-65
2023/12/01 11:52:11;;;;;;;2.80;2.37;;;5.70;98.50;;;;;;5046829;28;20221;-65
2023/12/01 11:54:41;;;;;;;3.83;2.40;;;5.70;98.50;;;;;;5049905;28;20295;-65
2023/12/01 11:57:10;;;;;;;5.37;3.00;;;5.70;98.50;;;;;;5021967;28;20304;-65
2023/12/01 11:59:37;;;;;;;4.53;3.07;;;5.80;98.60;;;;;;5038170;28;20271;-65
2023/12/01 12:02:05;;;;;;;4.23;3.03;;;5.80;99.00;;;;;;5045295;28;20187;-65
2023/12/01 12:04:32;;;;;;;3.10;2.80;;;5.80;98.70;;;;;;5048874;28;20199;-65
2023/12/01 12:07:01;;;;;;;3.70;2.80;;;5.90;98.80;;;;;;5048680;28;20226;-65
2023/12/01 12:09:31;;;;;;;3.40;2.73;;;5.90;98.70;;;;;;5044929;28;20386;-65
2023/12/01 12:12:01;;;;;;;3.47;2.97;;;5.90;98.70;;;;;;5048520;28;20190;-65
2023/12/01 12:14:30;;;;;;;5.77;3.10;;;6.10;98.70;;;;;;5046410;28;20201;-65
2023/12/01 12:16:57;;;;;;;4.07;2.97;;;6.20;98.50;;;;;;5045350;28;20207;-65
2023/12/01 12:19:24;;;;;;;4.57;2.67;;;6.10;98.60;;;;;;5048764;28;20269;-64
2023/12/01 12:21:51;;;;;;;4.57;2.93;;;6.00;98.40;;;;;;5030377;28;20627;-65
2023/12/01 12:24:19;;;;;;;5.53;2.70;;;5.90;98.40;;;;;;5049794;28;20245;-65
2023/12/01 12:26:55;;;;;;;3.67;2.80;;;5.90;98.60;;;;;;5053439;28;20659;-65
2023/12/01 12:29:24;;;;;;;3.80;3.10;;;5.90;98.70;;;;;;5047501;28;20733;-65
2023/12/01 12:31:51;;;;;;;5.43;2.63;;;5.90;98.70;;;;;;5052118;28;20228;-66
2023/12/01 12:34:19;;;;;;;3.33;2.80;;;5.90;98.80;;;;;;5048388;28;20237;-64
2023/12/01 12:36:50;;;;;;;4.80;2.90;;;6.20;99.00;;;;;;5029431;28;20194;-64
2023/12/01 12:39:17;;;;;;;4.20;2.83;;;5.80;98.90;;;;;;5043639;28;20258;-66
2023/12/01 12:41:52;;;;;;;3.23;2.73;;;5.80;98.90;;;;;;5027636;28;20270;-65
2023/12/01 12:44:20;;;;;;;2.77;2.37;;;5.70;98.90;;;;;;5048442;28;20218;-65
2023/12/01 12:47:00;;;;;;;2.47;2.10;;;5.70;99.10;;;;;;5047643;28;20202;-65
2023/12/01 12:49:27;;;;;;;3.00;2.20;;;5.70;99.10;;;;;;5029036;28;20582;-65
2023/12/01 12:51:55;;;;;;;3.60;2.50;;;5.70;99.20;;;;;;5047981;28;20207;-64
2023/12/01 12:54:22;;;;;;;3.40;2.70;;;5.70;99.20;;;;;;5047972;28;20230;-66
2023/12/01 12:56:50;;;;;;;3.63;2.50;;;5.70;99.30;;;;;;5046755;28;20199;-65
2023/12/01 12:59:17;;;;;;;4.00;2.40;;;5.80;99.30;;;;;;5039063;28;20290;-65